TimeCST,TemperatureF,Dew PointF,Humidity,Sea Level PressureIn,VisibilityMPH,Wind Direction,Wind SpeedMPH,Gust SpeedMPH,PrecipitationIn,Events,Conditions,WindDirDegrees,DateUTC
12:15 AM,32.0,28.4,87,30.53,10.0,Calm,Calm,-,N/A,,Clear,0,2013-12-24 06:15:00
12:35 AM,32.0,28.4,87,30.54,10.0,Calm,Calm,-,N/A,,Clear,0,2013-12-24 06:35:00
12:55 AM,32.0,28.4,87,30.54,10.0,Calm,Calm,-,N/A,,Clear,0,2013-12-24 06:55:00
1:15 AM,32.0,28.4,87,30.53,10.0,Calm,Calm,-,N/A,,Clear,0,2013-12-24 07:15:00
1:35 AM,32.0,28.4,87,30.54,10.0,Calm,Calm,-,N/A,,Clear,0,2013-12-24 07:35:00
1:55 AM,32.0,28.4,87,30.54,10.0,Calm,Calm,-,N/A,,Clear,0,2013-12-24 07:55:00
2:15 AM,32.0,28.4,87,30.55,10.0,Calm,Calm,-,N/A,,Clear,0,2013-12-24 08:15:00
2:35 AM,32.0,28.4,87,30.55,10.0,Calm,Calm,-,N/A,,Clear,0,2013-12-24 08:35:00
2:55 AM,32.0,26.6,80,30.55,10.0,Calm,Calm,-,N/A,,Clear,0,2013-12-24 08:55:00
3:15 AM,32.0,28.4,87,30.55,10.0,Calm,Calm,-,N/A,,Clear,0,2013-12-24 09:15:00
3:35 AM,32.0,28.4,87,30.55,10.0,Calm,Calm,-,N/A,,Clear,0,2013-12-24 09:35:00
3:55 AM,32.0,26.6,80,30.56,10.0,Calm,Calm,-,N/A,,Clear,0,2013-12-24 09:55:00
4:15 AM,32.0,26.6,80,30.56,10.0,Calm,Calm,-,N/A,,Clear,0,2013-12-24 10:15:00
4:35 AM,32.0,28.4,87,30.56,10.0,Calm,Calm,-,N/A,,Clear,0,2013-12-24 10:35:00
4:55 AM,32.0,28.4,87,30.56,10.0,Calm,Calm,-,N/A,,Clear,0,2013-12-24 10:55:00
5:15 AM,32.0,28.4,87,30.57,10.0,Calm,Calm,-,N/A,,Clear,0,2013-12-24 11:15:00
5:35 AM,30.2,26.6,86,30.55,10.0,Calm,Calm,-,N/A,,Clear,0,2013-12-24 11:35:00
5:55 AM,30.2,26.6,86,30.57,10.0,Calm,Calm,-,N/A,,Clear,0,2013-12-24 11:55:00
6:15 AM,28.4,26.6,93,30.57,10.0,Calm,Calm,-,N/A,,Clear,0,2013-12-24 12:15:00
6:35 AM,28.4,26.6,93,30.58,10.0,Calm,Calm,-,N/A,,Clear,0,2013-12-24 12:35:00
6:55 AM,28.4,24.8,86,30.58,10.0,Calm,Calm,-,N/A,,Clear,0,2013-12-24 12:55:00
7:15 AM,28.4,24.8,86,30.59,10.0,Calm,Calm,-,N/A,,Clear,0,2013-12-24 13:15:00
7:35 AM,28.4,24.8,86,30.60,10.0,Calm,Calm,-,N/A,,Clear,0,2013-12-24 13:35:00
7:55 AM,28.4,24.8,86,30.60,10.0,Calm,Calm,-,N/A,,Clear,0,2013-12-24 13:55:00
8:15 AM,28.4,24.8,86,30.61,10.0,Calm,Calm,-,N/A,,Clear,0,2013-12-24 14:15:00
8:35 AM,28.4,24.8,86,30.62,10.0,Calm,Calm,-,N/A,,Partly Cloudy,0,2013-12-24 14:35:00
8:55 AM,28.4,24.8,86,30.62,10.0,Calm,Calm,-,N/A,,Partly Cloudy,0,2013-12-24 14:55:00
9:15 AM,30.2,24.8,80,30.63,-9999.0,Calm,Calm,-,N/A,,Clear,0,2013-12-24 15:15:00
9:35 AM,30.2,24.8,80,30.64,10.0,Calm,Calm,-,N/A,,Clear,0,2013-12-24 15:35:00
9:55 AM,30.2,23.0,75,30.64,-9999.0,Calm,Calm,-,N/A,,Clear,0,2013-12-24 15:55:00
10:15 AM,32.0,23.0,69,30.64,10.0,Calm,Calm,-,N/A,,Clear,0,2013-12-24 16:15:00
10:35 AM,32.0,23.0,69,30.63,-9999.0,Calm,Calm,-,N/A,,Clear,0,2013-12-24 16:35:00
10:55 AM,32.0,23.0,69,30.63,10.0,Calm,Calm,-,N/A,,Clear,0,2013-12-24 16:55:00
11:15 AM,32.0,23.0,69,30.63,10.0,Calm,Calm,-,N/A,,Clear,0,2013-12-24 17:15:00
11:35 AM,32.0,23.0,69,30.62,10.0,Calm,Calm,-,N/A,,Clear,0,2013-12-24 17:35:00
11:55 AM,32.0,23.0,69,30.60,10.0,Calm,Calm,-,N/A,,Clear,0,2013-12-24 17:55:00
12:15 PM,33.8,24.8,70,30.58,10.0,Calm,Calm,-,N/A,,Clear,0,2013-12-24 18:15:00
12:35 PM,33.8,24.8,70,30.57,10.0,Calm,Calm,-,N/A,,Clear,0,2013-12-24 18:35:00
12:55 PM,35.6,24.8,65,30.57,10.0,Calm,Calm,-,N/A,,Clear,0,2013-12-24 18:55:00
1:15 PM,35.6,23.0,60,30.56,10.0,Calm,Calm,-,N/A,,Clear,0,2013-12-24 19:15:00
1:35 PM,35.6,24.8,65,30.55,10.0,Calm,Calm,-,N/A,,Clear,0,2013-12-24 19:35:00
1:55 PM,35.6,23.0,60,30.53,-9999.0,Calm,Calm,-,N/A,,Clear,0,2013-12-24 19:55:00
2:15 PM,35.6,24.8,65,30.53,10.0,Calm,Calm,-,N/A,,Clear,0,2013-12-24 20:15:00
2:35 PM,35.6,24.8,65,30.52,10.0,North,5.8,-,N/A,,Clear,10,2013-12-24 20:35:00
2:55 PM,37.4,24.8,60,30.52,10.0,Calm,Calm,-,N/A,,Clear,0,2013-12-24 20:55:00
3:15 PM,37.4,24.8,60,30.51,10.0,Calm,Calm,-,N/A,,Clear,0,2013-12-24 21:15:00
3:35 PM,37.4,24.8,60,30.51,10.0,Calm,Calm,-,N/A,,Clear,0,2013-12-24 21:35:00
3:55 PM,37.4,24.8,60,30.50,10.0,Calm,Calm,-,N/A,,Clear,0,2013-12-24 21:55:00
4:15 PM,37.4,24.8,60,30.49,10.0,Calm,Calm,-,N/A,,Clear,0,2013-12-24 22:15:00
4:35 PM,37.4,24.8,60,30.49,10.0,Calm,Calm,-,N/A,,Clear,0,2013-12-24 22:35:00
4:55 PM,35.6,26.6,70,30.49,10.0,Calm,Calm,-,N/A,,Clear,0,2013-12-24 22:55:00
5:15 PM,35.6,28.4,75,30.48,10.0,Calm,Calm,-,N/A,,Clear,0,2013-12-24 23:15:00
5:35 PM,35.6,30.2,81,30.48,10.0,Calm,Calm,-,N/A,,Clear,0,2013-12-24 23:35:00
5:55 PM,33.8,30.2,87,30.48,10.0,Calm,Calm,-,N/A,,Clear,0,2013-12-24 23:55:00
6:15 PM,32.0,30.2,93,30.48,10.0,Calm,Calm,-,N/A,,Clear,0,2013-12-25 00:15:00
6:35 PM,32.0,28.4,87,30.48,10.0,Calm,Calm,-,N/A,,Clear,0,2013-12-25 00:35:00
6:55 PM,32.0,28.4,87,30.48,10.0,Calm,Calm,-,N/A,,Clear,0,2013-12-25 00:55:00
7:15 PM,32.0,28.4,87,30.48,10.0,Calm,Calm,-,N/A,,Clear,0,2013-12-25 01:15:00
7:35 PM,32.0,28.4,87,30.48,10.0,Calm,Calm,-,N/A,,Clear,0,2013-12-25 01:35:00
7:55 PM,32.0,28.4,87,30.48,10.0,Calm,Calm,-,N/A,,Clear,0,2013-12-25 01:55:00
8:15 PM,32.0,28.4,87,30.47,10.0,Calm,Calm,-,N/A,,Clear,0,2013-12-25 02:15:00
8:35 PM,32.0,26.6,80,30.46,10.0,Calm,Calm,-,N/A,,Clear,0,2013-12-25 02:35:00
8:55 PM,32.0,26.6,80,30.46,10.0,Calm,Calm,-,N/A,,Clear,0,2013-12-25 02:55:00
9:15 PM,32.0,26.6,80,30.45,10.0,Calm,Calm,-,N/A,,Clear,0,2013-12-25 03:15:00
9:35 PM,30.2,24.8,80,30.45,10.0,Calm,Calm,-,N/A,,Clear,0,2013-12-25 03:35:00
9:55 PM,32.0,24.8,75,30.45,10.0,Calm,Calm,-,N/A,,Clear,0,2013-12-25 03:55:00
10:15 PM,30.2,26.6,86,30.45,10.0,Calm,Calm,-,N/A,,Clear,0,2013-12-25 04:15:00
10:35 PM,30.2,26.6,86,30.45,10.0,Calm,Calm,-,N/A,,Clear,0,2013-12-25 04:35:00
10:55 PM,30.2,26.6,86,30.44,10.0,Calm,Calm,-,N/A,,Clear,0,2013-12-25 04:55:00
11:15 PM,30.2,26.6,86,30.44,10.0,Calm,Calm,-,N/A,,Clear,0,2013-12-25 05:15:00
11:35 PM,30.2,26.6,86,30.44,10.0,Calm,Calm,-,N/A,,Clear,0,2013-12-25 05:35:00
11:55 PM,30.2,26.6,86,30.43,10.0,Calm,Calm,-,N/A,,Clear,0,2013-12-25 05:55:00